Terminal Aerodrome Forecast
Issued by NWS Pueblo, CO

Home | Current Version | Previous Version | Text Only | Print | Product List | Glossary On
Versions: 1 2 3 4 5 6 7 8 9 10 11 12 13 14 15 16 17 18 19 20 21 22 23 24 25 26 27 28 29 30 31 32 33 34 35 36 37 38 39 40 41 42 43 44
000
FTUS45 KPUB 241720
TAFCOS
TAF
KCOS 241720Z 2418/2518 VRB06KT P6SM FEW100 SCT200
     FM241900 20010KT P6SM FEW080 SCT200
     FM242300 35010KT P6SM SCT080 SCT120
     FM250300 02012KT P6SM SCT080 BKN120
     FM250500 36012G24KT P6SM BKN070
     FM251000 35010KT P6SM SCT070 SCT200=

USA.gov is the U.S. government's official web portal to all federal, state and local government web resources and services.